sensor_id;sensor_type;location;lat;lon;timestamp;temperature;humidity
37342;DHT22;58643;49.052;8.518;2023-03-01T00:01:18;-1.10;99.90
37342;DHT22;58643;49.052;8.518;2023-03-01T00:03:44;-0.80;99.90
37342;DHT22;58643;49.052;8.518;2023-03-01T00:06:10;-0.50;99.90
37342;DHT22;58643;49.052;8.518;2023-03-01T00:08:36;-0.50;99.90
37342;DHT22;58643;49.052;8.518;2023-03-01T00:11:16;-0.60;99.90
37342;DHT22;58643;49.052;8.518;2023-03-01T00:13:43;-0.90;99.90
37342;DHT22;58643;49.052;8.518;2023-03-01T00:16:12;-1.20;99.90
37342;DHT22;58643;49.052;8.518;2023-03-01T00:18:39;-1.40;99.90
37342;DHT22;58643;49.052;8.518;2023-03-01T00:21:05;-1.40;99.90
37342;DHT22;58643;49.052;8.518;2023-03-01T00:23:31;-1.60;99.90
37342;DHT22;58643;49.052;8.518;2023-03-01T00:25:57;-1.60;99.90
37342;DHT22;58643;49.052;8.518;2023-03-01T00:28:23;-1.80;99.90
37342;DHT22;58643;49.052;8.518;2023-03-01T00:30:48;-1.70;99.90
37342;DHT22;58643;49.052;8.518;2023-03-01T00:33:14;-1.90;99.90
37342;DHT22;58643;49.052;8.518;2023-03-01T00:35:40;-2.00;99.90
37342;DHT22;58643;49.052;8.518;2023-03-01T00:38:05;-2.10;99.90
37342;DHT22;58643;49.052;8.518;2023-03-01T00:40:34;0.70;99.90
37342;DHT22;58643;49.052;8.518;2023-03-01T00:43:00;-2.00;99.90
37342;DHT22;58643;49.052;8.518;2023-03-01T00:45:26;-2.00;99.90
37342;DHT22;58643;49.052;8.518;2023-03-01T00:47:52;-1.90;99.90
37342;DHT22;58643;49.052;8.518;2023-03-01T00:50:18;-1.90;99.90
37342;DHT22;58643;49.052;8.518;2023-03-01T00:52:44;-2.20;99.90
37342;DHT22;58643;49.052;8.518;2023-03-01T00:55:10;-2.10;99.90
37342;DHT22;58643;49.052;8.518;2023-03-01T00:57:37;-2.20;99.90
37342;DHT22;58643;49.052;8.518;2023-03-01T01:00:04;-2.20;99.90
37342;DHT22;58643;49.052;8.518;2023-03-01T01:02:33;-2.40;99.90
37342;DHT22;58643;49.052;8.518;2023-03-01T01:04:59;-2.50;99.90
37342;DHT22;58643;49.052;8.518;2023-03-01T01:07:25;-2.30;99.90
37342;DHT22;58643;49.052;8.518;2023-03-01T01:09:50;-2.30;99.90
37342;DHT22;58643;49.052;8.518;2023-03-01T01:12:16;-2.60;99.90
37342;DHT22;58643;49.052;8.518;2023-03-01T01:14:42;-2.20;99.90
37342;DHT22;58643;49.052;8.518;2023-03-01T01:17:07;-2.00;99.90
37342;DHT22;58643;49.052;8.518;2023-03-01T01:19:33;-1.70;99.90
37342;DHT22;58643;49.052;8.518;2023-03-01T01:21:58;-1.60;99.90
37342;DHT22;58643;49.052;8.518;2023-03-01T01:24:24;-1.50;99.90
37342;DHT22;58643;49.052;8.518;2023-03-01T01:26:50;-1.50;99.90
37342;DHT22;58643;49.052;8.518;2023-03-01T01:29:15;-1.40;99.90
37342;DHT22;58643;49.052;8.518;2023-03-01T01:31:42;-1.40;99.90
37342;DHT22;58643;49.052;8.518;2023-03-01T01:34:12;-1.30;99.90
37342;DHT22;58643;49.052;8.518;2023-03-01T01:36:38;-1.10;99.90
37342;DHT22;58643;49.052;8.518;2023-03-01T01:39:04;-1.20;99.90
37342;DHT22;58643;49.052;8.518;2023-03-01T01:41:30;-1.30;99.90
37342;DHT22;58643;49.052;8.518;2023-03-01T01:44:29;-1.10;99.90
37342;DHT22;58643;49.052;8.518;2023-03-01T01:47:04;-1.10;99.90
37342;DHT22;58643;49.052;8.518;2023-03-01T01:57:15;-1.20;99.90
37342;DHT22;58643;49.052;8.518;2023-03-01T01:59:43;-1.20;99.90
37342;DHT22;58643;49.052;8.518;2023-03-01T02:02:12;-1.10;99.90
37342;DHT22;58643;49.052;8.518;2023-03-01T02:04:38;-1.10;99.90
37342;DHT22;58643;49.052;8.518;2023-03-01T02:07:16;-1.20;99.90
37342;DHT22;58643;49.052;8.518;2023-03-01T02:09:46;-1.30;99.90
37342;DHT22;58643;49.052;8.518;2023-03-01T02:12:14;-1.20;99.90
37342;DHT22;58643;49.052;8.518;2023-03-01T02:14:40;-1.20;99.90
37342;DHT22;58643;49.052;8.518;2023-03-01T02:17:06;-1.30;99.90
37342;DHT22;58643;49.052;8.518;2023-03-01T02:19:52;-1.40;99.90
37342;DHT22;58643;49.052;8.518;2023-03-01T02:22:25;-1.50;99.90
37342;DHT22;58643;49.052;8.518;2023-03-01T02:27:36;-1.70;99.90
37342;DHT22;58643;49.052;8.518;2023-03-01T02:30:04;-1.80;99.90
37342;DHT22;58643;49.052;8.518;2023-03-01T02:32:30;-1.80;99.90
37342;DHT22;58643;49.052;8.518;2023-03-01T02:34:56;-1.70;99.90
37342;DHT22;58643;49.052;8.518;2023-03-01T02:37:23;-1.50;99.90
37342;DHT22;58643;49.052;8.518;2023-03-01T02:40:03;-4.00;99.90
37342;DHT22;58643;49.052;8.518;2023-03-01T02:42:36;-1.50;99.90
37342;DHT22;58643;49.052;8.518;2023-03-01T02:45:03;-1.40;99.90
37342;DHT22;58643;49.052;8.518;2023-03-01T02:47:29;-1.60;99.90
37342;DHT22;58643;49.052;8.518;2023-03-01T02:49:54;-0.40;99.90
37342;DHT22;58643;49.052;8.518;2023-03-01T02:55:34;-1.50;99.90
37342;DHT22;58643;49.052;8.518;2023-03-01T02:58:02;-1.40;99.90
37342;DHT22;58643;49.052;8.518;2023-03-01T03:00:39;-1.20;99.90
37342;DHT22;58643;49.052;8.518;2023-03-01T03:03:13;-1.20;99.90
37342;DHT22;58643;49.052;8.518;2023-03-01T03:05:39;-1.20;99.90
37342;DHT22;58643;49.052;8.518;2023-03-01T03:08:05;-1.20;99.90
37342;DHT22;58643;49.052;8.518;2023-03-01T03:10:35;-1.40;99.90
37342;DHT22;58643;49.052;8.518;2023-03-01T03:13:14;-1.50;99.90
37342;DHT22;58643;49.052;8.518;2023-03-01T03:15:40;-1.50;99.90
37342;DHT22;58643;49.052;8.518;2023-03-01T03:18:12;-1.50;99.90
37342;DHT22;58643;49.052;8.518;2023-03-01T03:20:40;-1.40;99.90
37342;DHT22;58643;49.052;8.518;2023-03-01T03:23:06;-1.50;99.90
37342;DHT22;58643;49.052;8.518;2023-03-01T03:25:31;-1.50;99.90
37342;DHT22;58643;49.052;8.518;2023-03-01T03:27:57;-1.60;99.90
37342;DHT22;58643;49.052;8.518;2023-03-01T03:30:26;-1.50;99.90
37342;DHT22;58643;49.052;8.518;2023-03-01T03:32:52;-1.50;99.90
37342;DHT22;58643;49.052;8.518;2023-03-01T03:35:48;-1.40;99.90
37342;DHT22;58643;49.052;8.518;2023-03-01T03:38:16;-1.40;99.90
37342;DHT22;58643;49.052;8.518;2023-03-01T03:41:05;-1.40;99.90
37342;DHT22;58643;49.052;8.518;2023-03-01T03:43:35;-0.90;99.90
37342;DHT22;58643;49.052;8.518;2023-03-01T03:46:02;-1.30;99.90
37342;DHT22;58643;49.052;8.518;2023-03-01T03:48:34;-1.30;99.90
37342;DHT22;58643;49.052;8.518;2023-03-01T03:51:00;-1.30;99.90
37342;DHT22;58643;49.052;8.518;2023-03-01T03:53:28;-1.30;99.90
37342;DHT22;58643;49.052;8.518;2023-03-01T03:55:54;-1.50;99.90
37342;DHT22;58643;49.052;8.518;2023-03-01T03:58:22;-1.40;99.90
37342;DHT22;58643;49.052;8.518;2023-03-01T04:00:50;-1.60;99.90
37342;DHT22;58643;49.052;8.518;2023-03-01T04:03:16;-1.60;99.90
37342;DHT22;58643;49.052;8.518;2023-03-01T04:05:44;-1.50;99.90
37342;DHT22;58643;49.052;8.518;2023-03-01T04:08:10;-1.80;99.90
37342;DHT22;58643;49.052;8.518;2023-03-01T04:10:41;-1.50;99.90
37342;DHT22;58643;49.052;8.518;2023-03-01T04:13:09;-1.80;99.90
37342;DHT22;58643;49.052;8.518;2023-03-01T04:15:35;-1.60;99.90
37342;DHT22;58643;49.052;8.518;2023-03-01T04:18:02;-1.40;99.90
37342;DHT22;58643;49.052;8.518;2023-03-01T04:20:30;-1.20;99.90
37342;DHT22;58643;49.052;8.518;2023-03-01T04:25:44;-1.30;99.90
37342;DHT22;58643;49.052;8.518;2023-03-01T04:28:10;-1.40;99.90
37342;DHT22;58643;49.052;8.518;2023-03-01T04:30:37;-1.30;99.90
37342;DHT22;58643;49.052;8.518;2023-03-01T04:33:05;-1.30;99.90
37342;DHT22;58643;49.052;8.518;2023-03-01T04:35:31;-1.30;99.90
37342;DHT22;58643;49.052;8.518;2023-03-01T04:37:57;-1.30;99.90
37342;DHT22;58643;49.052;8.518;2023-03-01T04:40:23;-1.50;99.90
37342;DHT22;58643;49.052;8.518;2023-03-01T04:42:48;-1.40;99.90
37342;DHT22;58643;49.052;8.518;2023-03-01T04:45:14;-1.40;99.90
37342;DHT22;58643;49.052;8.518;2023-03-01T04:47:43;-1.50;99.90
37342;DHT22;58643;49.052;8.518;2023-03-01T04:50:12;-1.60;99.90
37342;DHT22;58643;49.052;8.518;2023-03-01T04:52:38;-2.00;99.90
37342;DHT22;58643;49.052;8.518;2023-03-01T04:55:04;-2.00;99.90
37342;DHT22;58643;49.052;8.518;2023-03-01T04:57:30;-2.00;99.90
37342;DHT22;58643;49.052;8.518;2023-03-01T04:59:56;-2.10;99.90
37342;DHT22;58643;49.052;8.518;2023-03-01T05:02:21;-2.00;99.90
37342;DHT22;58643;49.052;8.518;2023-03-01T05:04:47;-1.70;99.90
37342;DHT22;58643;49.052;8.518;2023-03-01T05:07:13;-2.20;99.90
37342;DHT22;58643;49.052;8.518;2023-03-01T05:09:45;-2.10;99.90
37342;DHT22;58643;49.052;8.518;2023-03-01T05:12:11;-2.30;99.90
37342;DHT22;58643;49.052;8.518;2023-03-01T05:14:37;-2.00;99.90
37342;DHT22;58643;49.052;8.518;2023-03-01T05:17:03;-1.80;99.90
37342;DHT22;58643;49.052;8.518;2023-03-01T05:19:30;-1.80;99.90
37342;DHT22;58643;49.052;8.518;2023-03-01T05:21:57;-1.60;99.90
37342;DHT22;58643;49.052;8.518;2023-03-01T05:24:30;-1.80;99.90
37342;DHT22;58643;49.052;8.518;2023-03-01T05:26:56;-1.40;99.90
37342;DHT22;58643;49.052;8.518;2023-03-01T05:29:24;-1.50;99.90
37342;DHT22;58643;49.052;8.518;2023-03-01T05:31:54;-0.50;99.90
37342;DHT22;58643;49.052;8.518;2023-03-01T05:34:30;-1.50;99.90
37342;DHT22;58643;49.052;8.518;2023-03-01T05:36:56;-1.60;99.90
37342;DHT22;58643;49.052;8.518;2023-03-01T05:39:24;-1.60;99.90
37342;DHT22;58643;49.052;8.518;2023-03-01T05:41:58;-1.50;99.90
37342;DHT22;58643;49.052;8.518;2023-03-01T05:44:24;-1.70;99.90
37342;DHT22;58643;49.052;8.518;2023-03-01T05:46:51;-1.40;99.90
37342;DHT22;58643;49.052;8.518;2023-03-01T05:49:17;-1.60;99.90
37342;DHT22;58643;49.052;8.518;2023-03-01T05:51:47;-1.70;99.90
37342;DHT22;58643;49.052;8.518;2023-03-01T05:54:12;-1.80;99.90
37342;DHT22;58643;49.052;8.518;2023-03-01T05:56:38;-1.70;99.90
37342;DHT22;58643;49.052;8.518;2023-03-01T05:59:04;-1.80;99.90
37342;DHT22;58643;49.052;8.518;2023-03-01T06:01:31;-2.00;99.90
37342;DHT22;58643;49.052;8.518;2023-03-01T06:03:57;-1.80;99.90
37342;DHT22;58643;49.052;8.518;2023-03-01T06:06:23;-1.90;99.90
37342;DHT22;58643;49.052;8.518;2023-03-01T06:08:49;-2.00;99.90
37342;DHT22;58643;49.052;8.518;2023-03-01T06:11:15;-2.00;99.90
37342;DHT22;58643;49.052;8.518;2023-03-01T06:13:44;-2.00;99.90
37342;DHT22;58643;49.052;8.518;2023-03-01T06:16:10;-1.80;99.90
37342;DHT22;58643;49.052;8.518;2023-03-01T06:18:37;-1.80;99.90
37342;DHT22;58643;49.052;8.518;2023-03-01T06:21:04;-1.90;99.90
37342;DHT22;58643;49.052;8.518;2023-03-01T06:23:29;-1.90;99.90
37342;DHT22;58643;49.052;8.518;2023-03-01T06:25:55;-2.00;99.90
37342;DHT22;58643;49.052;8.518;2023-03-01T06:28:21;-1.80;99.90
37342;DHT22;58643;49.052;8.518;2023-03-01T06:30:48;-1.70;99.90
37342;DHT22;58643;49.052;8.518;2023-03-01T06:33:14;-1.90;99.90
37342;DHT22;58643;49.052;8.518;2023-03-01T06:35:40;-1.90;99.90
37342;DHT22;58643;49.052;8.518;2023-03-01T06:38:05;-1.90;99.90
37342;DHT22;58643;49.052;8.518;2023-03-01T06:40:32;-1.70;99.90
37342;DHT22;58643;49.052;8.518;2023-03-01T06:42:58;-1.70;99.90
37342;DHT22;58643;49.052;8.518;2023-03-01T06:45:24;-0.70;99.90
37342;DHT22;58643;49.052;8.518;2023-03-01T06:47:50;-1.30;99.90
37342;DHT22;58643;49.052;8.518;2023-03-01T06:50:16;-1.60;99.90
37342;DHT22;58643;49.052;8.518;2023-03-01T06:52:42;-1.50;99.90
37342;DHT22;58643;49.052;8.518;2023-03-01T06:55:10;-1.30;99.90
37342;DHT22;58643;49.052;8.518;2023-03-01T06:57:36;-1.30;99.90
37342;DHT22;58643;49.052;8.518;2023-03-01T07:00:04;-1.30;99.90
37342;DHT22;58643;49.052;8.518;2023-03-01T07:02:30;-1.30;99.90
37342;DHT22;58643;49.052;8.518;2023-03-01T07:04:55;-1.40;99.90
37342;DHT22;58643;49.052;8.518;2023-03-01T07:07:21;-1.20;99.90
37342;DHT22;58643;49.052;8.518;2023-03-01T07:09:49;-1.20;99.90
37342;DHT22;58643;49.052;8.518;2023-03-01T07:12:15;-1.00;99.90
37342;DHT22;58643;49.052;8.518;2023-03-01T07:14:40;-1.00;99.90
37342;DHT22;58643;49.052;8.518;2023-03-01T07:17:06;-1.00;99.90
37342;DHT22;58643;49.052;8.518;2023-03-01T07:19:32;-0.90;99.90
37342;DHT22;58643;49.052;8.518;2023-03-01T07:21:58;-0.70;99.90
37342;DHT22;58643;49.052;8.518;2023-03-01T07:24:23;-0.60;99.90
37342;DHT22;58643;49.052;8.518;2023-03-01T07:26:50;-0.60;99.90
37342;DHT22;58643;49.052;8.518;2023-03-01T07:29:16;0.70;99.90
37342;DHT22;58643;49.052;8.518;2023-03-01T07:31:42;-0.60;99.90
37342;DHT22;58643;49.052;8.518;2023-03-01T07:34:08;-0.60;99.90
37342;DHT22;58643;49.052;8.518;2023-03-01T07:36:33;0.90;99.90
37342;DHT22;58643;49.052;8.518;2023-03-01T07:38:59;-0.40;99.90
37342;DHT22;58643;49.052;8.518;2023-03-01T07:41:27;1.50;99.90
37342;DHT22;58643;49.052;8.518;2023-03-01T07:43:53;-0.30;99.90
37342;DHT22;58643;49.052;8.518;2023-03-01T07:46:18;-0.30;99.90
37342;DHT22;58643;49.052;8.518;2023-03-01T07:48:44;-0.10;99.90
37342;DHT22;58643;49.052;8.518;2023-03-01T07:51:10;-0.10;99.90
37342;DHT22;58643;49.052;8.518;2023-03-01T07:53:36;0.20;99.90
37342;DHT22;58643;49.052;8.518;2023-03-01T07:56:07;0.30;99.90
37342;DHT22;58643;49.052;8.518;2023-03-01T07:58:37;0.40;99.90
37342;DHT22;58643;49.052;8.518;2023-03-01T08:01:04;0.40;99.90
37342;DHT22;58643;49.052;8.518;2023-03-01T08:03:30;0.60;99.90
37342;DHT22;58643;49.052;8.518;2023-03-01T08:05:58;0.80;99.90
37342;DHT22;58643;49.052;8.518;2023-03-01T08:08:24;0.60;99.90
37342;DHT22;58643;49.052;8.518;2023-03-01T08:10:50;1.00;99.90
37342;DHT22;58643;49.052;8.518;2023-03-01T08:13:15;1.20;99.90
37342;DHT22;58643;49.052;8.518;2023-03-01T08:15:41;1.10;99.90
37342;DHT22;58643;49.052;8.518;2023-03-01T08:18:06;1.20;99.90
37342;DHT22;58643;49.052;8.518;2023-03-01T08:20:32;1.50;99.90
37342;DHT22;58643;49.052;8.518;2023-03-01T08:22:58;1.40;99.90
37342;DHT22;58643;49.052;8.518;2023-03-01T08:25:23;1.70;99.90
37342;DHT22;58643;49.052;8.518;2023-03-01T08:27:49;1.90;99.90
37342;DHT22;58643;49.052;8.518;2023-03-01T08:30:15;1.70;99.90
37342;DHT22;58643;49.052;8.518;2023-03-01T08:32:40;1.80;99.90
37342;DHT22;58643;49.052;8.518;2023-03-01T08:35:06;2.00;99.90
37342;DHT22;58643;49.052;8.518;2023-03-01T08:37:32;2.00;99.90
37342;DHT22;58643;49.052;8.518;2023-03-01T08:39:59;2.20;99.90
37342;DHT22;58643;49.052;8.518;2023-03-01T08:42:25;2.40;99.90
37342;DHT22;58643;49.052;8.518;2023-03-01T08:44:51;2.80;99.90
37342;DHT22;58643;49.052;8.518;2023-03-01T08:47:17;3.20;99.90
37342;DHT22;58643;49.052;8.518;2023-03-01T08:49:42;3.60;99.90
37342;DHT22;58643;49.052;8.518;2023-03-01T08:52:08;4.30;99.90
37342;DHT22;58643;49.052;8.518;2023-03-01T08:54:33;4.80;99.90
37342;DHT22;58643;49.052;8.518;2023-03-01T08:57:01;5.10;99.90
37342;DHT22;58643;49.052;8.518;2023-03-01T08:59:27;5.30;99.90
37342;DHT22;58643;49.052;8.518;2023-03-01T09:01:54;5.00;99.90
37342;DHT22;58643;49.052;8.518;2023-03-01T09:04:23;5.40;99.90
37342;DHT22;58643;49.052;8.518;2023-03-01T09:06:49;5.60;99.90
37342;DHT22;58643;49.052;8.518;2023-03-01T09:09:16;5.50;99.90
37342;DHT22;58643;49.052;8.518;2023-03-01T09:11:43;6.20;99.90
37342;DHT22;58643;49.052;8.518;2023-03-01T09:14:12;6.20;99.90
37342;DHT22;58643;49.052;8.518;2023-03-01T09:16:37;6.90;99.90
37342;DHT22;58643;49.052;8.518;2023-03-01T09:19:04;7.50;99.90
37342;DHT22;58643;49.052;8.518;2023-03-01T09:21:29;8.80;98.40
37342;DHT22;58643;49.052;8.518;2023-03-01T09:23:56;9.30;96.90
37342;DHT22;58643;49.052;8.518;2023-03-01T09:26:23;9.30;93.20
37342;DHT22;58643;49.052;8.518;2023-03-01T09:28:50;9.60;92.00
37342;DHT22;58643;49.052;8.518;2023-03-01T09:31:17;10.00;89.60
37342;DHT22;58643;49.052;8.518;2023-03-01T09:33:46;10.10;90.10
37342;DHT22;58643;49.052;8.518;2023-03-01T09:36:13;10.60;86.30
37342;DHT22;58643;49.052;8.518;2023-03-01T09:38:39;10.90;83.60
37342;DHT22;58643;49.052;8.518;2023-03-01T09:43:48;12.20;79.90
37342;DHT22;58643;49.052;8.518;2023-03-01T09:46:21;11.60;74.00
37342;DHT22;58643;49.052;8.518;2023-03-01T09:49:27;11.40;77.90
37342;DHT22;58643;49.052;8.518;2023-03-01T09:52:01;11.20;76.20
37342;DHT22;58643;49.052;8.518;2023-03-01T09:54:28;11.40;76.00
37342;DHT22;58643;49.052;8.518;2023-03-01T10:02:26;12.20;76.10
37342;DHT22;58643;49.052;8.518;2023-03-01T10:04:57;12.70;71.60
37342;DHT22;58643;49.052;8.518;2023-03-01T10:07:43;13.00;69.50
37342;DHT22;58643;49.052;8.518;2023-03-01T10:10:43;13.10;68.00
37342;DHT22;58643;49.052;8.518;2023-03-01T10:13:14;13.20;70.10
37342;DHT22;58643;49.052;8.518;2023-03-01T10:15:47;14.40;68.40
37342;DHT22;58643;49.052;8.518;2023-03-01T10:18:22;14.60;66.70
37342;DHT22;58643;49.052;8.518;2023-03-01T10:21:02;14.40;65.40
37342;DHT22;58643;49.052;8.518;2023-03-01T10:23:31;13.50;65.60
37342;DHT22;58643;49.052;8.518;2023-03-01T10:29:04;13.40;62.90
37342;DHT22;58643;49.052;8.518;2023-03-01T10:31:39;13.40;64.10
37342;DHT22;58643;49.052;8.518;2023-03-01T10:34:12;13.30;67.70
37342;DHT22;58643;49.052;8.518;2023-03-01T10:36:39;14.20;64.60
37342;DHT22;58643;49.052;8.518;2023-03-01T10:39:13;14.20;63.60
37342;DHT22;58643;49.052;8.518;2023-03-01T10:42:02;13.80;64.10
37342;DHT22;58643;49.052;8.518;2023-03-01T10:44:44;13.50;63.70
37342;DHT22;58643;49.052;8.518;2023-03-01T10:47:25;14.00;62.80
37342;DHT22;58643;49.052;8.518;2023-03-01T10:49:53;15.30;65.30
37342;DHT22;58643;49.052;8.518;2023-03-01T10:52:22;15.80;64.20
37342;DHT22;58643;49.052;8.518;2023-03-01T10:54:54;14.60;64.70
37342;DHT22;58643;49.052;8.518;2023-03-01T10:57:35;15.70;65.00
37342;DHT22;58643;49.052;8.518;2023-03-01T11:00:25;14.10;62.20
37342;DHT22;58643;49.052;8.518;2023-03-01T11:03:11;15.30;58.50
37342;DHT22;58643;49.052;8.518;2023-03-01T11:06:00;16.40;59.30
37342;DHT22;58643;49.052;8.518;2023-03-01T11:13:36;15.90;56.40
37342;DHT22;58643;49.052;8.518;2023-03-01T11:16:10;16.30;58.00
37342;DHT22;58643;49.052;8.518;2023-03-01T11:18:37;15.40;58.30
37342;DHT22;58643;49.052;8.518;2023-03-01T11:21:03;16.20;58.70
37342;DHT22;58643;49.052;8.518;2023-03-01T11:23:31;18.40;60.20
37342;DHT22;58643;49.052;8.518;2023-03-01T11:26:04;15.10;59.40
37342;DHT22;58643;49.052;8.518;2023-03-01T11:28:30;15.40;58.30
37342;DHT22;58643;49.052;8.518;2023-03-01T11:31:07;14.60;60.70
37342;DHT22;58643;49.052;8.518;2023-03-01T11:36:32;14.90;62.80
37342;DHT22;58643;49.052;8.518;2023-03-01T11:39:05;14.00;59.00
37342;DHT22;58643;49.052;8.518;2023-03-01T11:41:39;16.00;60.60
37342;DHT22;58643;49.052;8.518;2023-03-01T11:44:25;16.10;60.10
37342;DHT22;58643;49.052;8.518;2023-03-01T11:52:48;14.90;57.20
37342;DHT22;58643;49.052;8.518;2023-03-01T11:58:16;15.10;57.40
37342;DHT22;58643;49.052;8.518;2023-03-01T12:03:45;15.30;55.20
37342;DHT22;58643;49.052;8.518;2023-03-01T12:17:40;15.10;56.40
37342;DHT22;58643;49.052;8.518;2023-03-01T12:23:14;13.90;59.60
37342;DHT22;58643;49.052;8.518;2023-03-01T12:34:07;15.30;55.90
37342;DHT22;58643;49.052;8.518;2023-03-01T12:50:53;14.90;56.50
37342;DHT22;58643;49.052;8.518;2023-03-01T12:53:25;14.90;56.60
37342;DHT22;58643;49.052;8.518;2023-03-01T12:55:54;15.20;58.00
37342;DHT22;58643;49.052;8.518;2023-03-01T12:58:30;15.30;57.90
37342;DHT22;58643;49.052;8.518;2023-03-01T13:04:14;14.60;56.00
37342;DHT22;58643;49.052;8.518;2023-03-01T13:06:55;14.50;57.70
37342;DHT22;58643;49.052;8.518;2023-03-01T13:09:31;14.20;58.10
37342;DHT22;58643;49.052;8.518;2023-03-01T13:11:58;14.50;57.70
37342;DHT22;58643;49.052;8.518;2023-03-01T13:16:51;14.90;58.60
37342;DHT22;58643;49.052;8.518;2023-03-01T13:19:18;14.60;58.50
37342;DHT22;58643;49.052;8.518;2023-03-01T13:21:46;15.80;60.40
37342;DHT22;58643;49.052;8.518;2023-03-01T13:24:40;14.80;59.50
37342;DHT22;58643;49.052;8.518;2023-03-01T13:29:54;13.40;58.70
37342;DHT22;58643;49.052;8.518;2023-03-01T13:32:23;14.30;57.70
37342;DHT22;58643;49.052;8.518;2023-03-01T13:34:52;14.70;57.30
37342;DHT22;58643;49.052;8.518;2023-03-01T13:37:21;15.20;56.40
37342;DHT22;58643;49.052;8.518;2023-03-01T13:39:48;14.90;58.50
37342;DHT22;58643;49.052;8.518;2023-03-01T13:42:35;15.90;61.40
37342;DHT22;58643;49.052;8.518;2023-03-01T13:45:14;15.60;61.00
37342;DHT22;58643;49.052;8.518;2023-03-01T13:47:41;14.00;59.70
37342;DHT22;58643;49.052;8.518;2023-03-01T13:50:27;13.90;60.40
37342;DHT22;58643;49.052;8.518;2023-03-01T13:52:59;13.60;59.20
37342;DHT22;58643;49.052;8.518;2023-03-01T13:55:36;13.90;59.60
37342;DHT22;58643;49.052;8.518;2023-03-01T13:58:14;13.90;60.40
37342;DHT22;58643;49.052;8.518;2023-03-01T14:00:40;13.80;60.70
37342;DHT22;58643;49.052;8.518;2023-03-01T14:03:10;15.50;61.80
37342;DHT22;58643;49.052;8.518;2023-03-01T14:05:38;13.20;59.50
37342;DHT22;58643;49.052;8.518;2023-03-01T14:08:04;13.00;62.20
37342;DHT22;58643;49.052;8.518;2023-03-01T14:10:37;13.40;63.90
37342;DHT22;58643;49.052;8.518;2023-03-01T14:16:12;12.70;61.50
37342;DHT22;58643;49.052;8.518;2023-03-01T14:19:10;12.80;63.40
37342;DHT22;58643;49.052;8.518;2023-03-01T14:21:38;12.70;61.80
37342;DHT22;58643;49.052;8.518;2023-03-01T14:24:03;13.90;64.70
37342;DHT22;58643;49.052;8.518;2023-03-01T14:26:31;12.60;63.90
37342;DHT22;58643;49.052;8.518;2023-03-01T14:28:58;14.20;63.80
37342;DHT22;58643;49.052;8.518;2023-03-01T14:31:37;13.40;63.20
37342;DHT22;58643;49.052;8.518;2023-03-01T14:34:04;13.40;63.00
37342;DHT22;58643;49.052;8.518;2023-03-01T14:36:31;13.60;62.60
37342;DHT22;58643;49.052;8.518;2023-03-01T14:38:57;15.10;62.30
37342;DHT22;58643;49.052;8.518;2023-03-01T14:41:32;16.80;62.20
37342;DHT22;58643;49.052;8.518;2023-03-01T14:44:12;16.00;60.70
37342;DHT22;58643;49.052;8.518;2023-03-01T14:46:41;14.50;58.30
37342;DHT22;58643;49.052;8.518;2023-03-01T14:49:19;15.80;60.80
37342;DHT22;58643;49.052;8.518;2023-03-01T14:52:06;14.60;57.80
37342;DHT22;58643;49.052;8.518;2023-03-01T14:54:47;15.10;59.50
37342;DHT22;58643;49.052;8.518;2023-03-01T14:57:24;14.80;60.00
37342;DHT22;58643;49.052;8.518;2023-03-01T14:59:55;15.10;60.70
37342;DHT22;58643;49.052;8.518;2023-03-01T15:02:24;14.70;60.40
37342;DHT22;58643;49.052;8.518;2023-03-01T15:05:02;14.70;59.60
37342;DHT22;58643;49.052;8.518;2023-03-01T15:07:35;14.80;60.60
37342;DHT22;58643;49.052;8.518;2023-03-01T15:10:04;15.40;60.80
37342;DHT22;58643;49.052;8.518;2023-03-01T15:12:35;14.50;59.90
37342;DHT22;58643;49.052;8.518;2023-03-01T15:15:01;14.90;59.90
37342;DHT22;58643;49.052;8.518;2023-03-01T15:19:56;16.10;62.10
37342;DHT22;58643;49.052;8.518;2023-03-01T15:22:23;14.10;62.40
37342;DHT22;58643;49.052;8.518;2023-03-01T15:24:50;14.00;62.30
37342;DHT22;58643;49.052;8.518;2023-03-01T15:27:20;16.50;63.20
37342;DHT22;58643;49.052;8.518;2023-03-01T15:29:59;13.90;61.40
37342;DHT22;58643;49.052;8.518;2023-03-01T15:32:33;13.90;62.00
37342;DHT22;58643;49.052;8.518;2023-03-01T15:35:01;15.90;62.70
37342;DHT22;58643;49.052;8.518;2023-03-01T15:37:46;15.30;62.00
37342;DHT22;58643;49.052;8.518;2023-03-01T15:40:24;14.10;59.20
37342;DHT22;58643;49.052;8.518;2023-03-01T15:42:58;13.70;59.70
37342;DHT22;58643;49.052;8.518;2023-03-01T15:45:26;14.50;63.20
37342;DHT22;58643;49.052;8.518;2023-03-01T15:47:58;13.10;63.00
37342;DHT22;58643;49.052;8.518;2023-03-01T15:50:29;14.90;64.70
37342;DHT22;58643;49.052;8.518;2023-03-01T15:52:56;12.80;63.90
37342;DHT22;58643;49.052;8.518;2023-03-01T15:58:06;13.00;61.60
37342;DHT22;58643;49.052;8.518;2023-03-01T16:00:35;12.60;64.90
37342;DHT22;58643;49.052;8.518;2023-03-01T16:03:00;12.50;65.10
37342;DHT22;58643;49.052;8.518;2023-03-01T16:05:34;14.20;67.00
37342;DHT22;58643;49.052;8.518;2023-03-01T16:08:00;12.00;63.60
37342;DHT22;58643;49.052;8.518;2023-03-01T16:10:26;14.10;66.40
37342;DHT22;58643;49.052;8.518;2023-03-01T16:12:53;14.70;65.90
37342;DHT22;58643;49.052;8.518;2023-03-01T16:15:21;12.00;65.80
37342;DHT22;58643;49.052;8.518;2023-03-01T16:17:47;11.60;66.50
37342;DHT22;58643;49.052;8.518;2023-03-01T16:20:13;11.40;68.00
37342;DHT22;58643;49.052;8.518;2023-03-01T16:22:42;11.00;68.20
37342;DHT22;58643;49.052;8.518;2023-03-01T16:25:09;12.90;70.30
37342;DHT22;58643;49.052;8.518;2023-03-01T16:27:35;10.50;69.40
37342;DHT22;58643;49.052;8.518;2023-03-01T16:30:00;10.40;69.70
37342;DHT22;58643;49.052;8.518;2023-03-01T16:32:26;11.70;71.40
37342;DHT22;58643;49.052;8.518;2023-03-01T16:34:51;10.40;70.60
37342;DHT22;58643;49.052;8.518;2023-03-01T16:37:17;11.50;71.80
37342;DHT22;58643;49.052;8.518;2023-03-01T16:39:44;9.90;71.90
37342;DHT22;58643;49.052;8.518;2023-03-01T16:42:10;9.80;72.70
37342;DHT22;58643;49.052;8.518;2023-03-01T16:44:35;10.60;73.90
37342;DHT22;58643;49.052;8.518;2023-03-01T16:47:01;11.90;75.20
37342;DHT22;58643;49.052;8.518;2023-03-01T16:49:26;10.50;75.20
37342;DHT22;58643;49.052;8.518;2023-03-01T16:51:53;9.00;75.70
37342;DHT22;58643;49.052;8.518;2023-03-01T16:54:19;8.80;76.40
37342;DHT22;58643;49.052;8.518;2023-03-01T16:56:44;8.20;79.00
37342;DHT22;58643;49.052;8.518;2023-03-01T16:59:10;8.10;81.10
37342;DHT22;58643;49.052;8.518;2023-03-01T17:01:36;9.40;84.50
37342;DHT22;58643;49.052;8.518;2023-03-01T17:04:06;7.60;84.00
37342;DHT22;58643;49.052;8.518;2023-03-01T17:06:32;7.40;88.30
37342;DHT22;58643;49.052;8.518;2023-03-01T17:08:58;9.40;90.30
37342;DHT22;58643;49.052;8.518;2023-03-01T17:11:25;7.30;91.00
37342;DHT22;58643;49.052;8.518;2023-03-01T17:13:50;7.10;91.90
37342;DHT22;58643;49.052;8.518;2023-03-01T17:16:18;6.90;93.00
37342;DHT22;58643;49.052;8.518;2023-03-01T17:18:46;6.70;93.90
37342;DHT22;58643;49.052;8.518;2023-03-01T17:21:12;6.70;95.20
37342;DHT22;58643;49.052;8.518;2023-03-01T17:23:40;6.40;95.90
37342;DHT22;58643;49.052;8.518;2023-03-01T17:26:06;6.30;97.10